Time;durP1;ratioP1;P1;durP2;ratioP2;P2;SDS_P1;SDS_P2;PMS_P1;PMS_P2;Temp;Humidity;BMP_temperature;BMP_pressure;BME280_temperature;BME280_humidity;BME280_pressure;Samples;Min_cycle;Max_cycle;Signal;HPM_P1;HPM_P2
2024/04/11 00:01:35;;;;;;;18.60;6.63;;;;;;;7.34;100.00;102178.38;5296628;26;20139;-74
2024/04/11 00:04:01;;;;;;;30.83;7.83;;;;;;;7.37;100.00;102166.69;5329789;26;20049;-77
2024/04/11 00:06:26;;;;;;;21.03;7.27;;;;;;;7.29;100.00;102137.16;5296072;26;20697;-76
2024/04/11 00:08:52;;;;;;;22.73;5.97;;;;;;;7.44;100.00;102136.06;5289789;26;19997;-75
2024/04/11 00:11:18;;;;;;;16.75;6.88;;;;;;;7.45;100.00;102105.91;5303925;26;20409;-76
2024/04/11 00:13:44;;;;;;;;;;;;;;;7.50;100.00;102095.78;5304096;26;20001;-76
2024/04/11 00:16:10;;;;;;;19.73;6.57;;;;;;;7.45;100.00;102074.00;5303483;26;19938;-75
2024/04/11 00:18:35;;;;;;;19.42;6.50;;;;;;;7.39;100.00;102054.03;5303502;26;20061;-77
2024/04/11 00:21:02;;;;;;;15.30;6.00;;;;;;;7.37;100.00;102037.38;5303181;26;20411;-77
2024/04/11 00:23:27;;;;;;;14.30;6.85;;;;;;;7.37;100.00;102017.91;5303889;26;20005;-75
2024/04/11 00:25:57;;;;;;;18.07;7.33;;;;;;;7.49;100.00;102014.38;5303431;26;20009;-76
2024/04/11 00:28:25;;;;;;;17.88;7.60;;;;;;;7.61;100.00;102009.97;5303758;26;20010;-76
2024/04/11 00:30:51;;;;;;;18.48;6.40;;;;;;;7.69;100.00;101993.44;5302903;26;20015;-75
2024/04/11 00:33:16;;;;;;;18.85;6.80;;;;;;;7.66;100.00;101932.56;5301655;26;20577;-77
2024/04/11 00:35:42;;;;;;;17.13;6.23;;;;;;;7.82;100.00;101930.44;5318387;26;20053;-77
2024/04/11 00:38:10;;;;;;;18.27;7.07;;;;;;;7.63;100.00;101884.91;5290272;26;20010;-75
2024/04/11 00:40:38;;;;;;;10.25;5.10;;;;;;;7.70;100.00;101863.09;5330267;26;20791;-76
2024/04/11 00:43:09;;;;;;;18.27;5.57;;;;;;;7.80;100.00;101856.09;5301330;26;20006;-76
2024/04/11 00:45:45;;;;;;;9.10;4.93;;;;;;;7.70;100.00;101827.66;5301353;27;20017;-77
2024/04/11 00:48:11;;;;;;;17.13;5.43;;;;;;;7.81;100.00;101819.72;5302069;26;20582;-75
2024/04/11 00:50:40;;;;;;;15.88;5.90;;;;;;;7.82;100.00;101800.16;5302315;26;20002;-76
2024/04/11 00:53:06;;;;;;;17.95;5.30;;;;;;;7.82;100.00;101785.06;5303004;26;20016;-77
2024/04/11 00:55:32;;;;;;;9.80;5.22;;;;;;;7.81;100.00;101742.63;5329898;26;20048;-75
2024/04/11 00:57:58;;;;;;;12.70;5.25;;;;;;;7.94;100.00;101735.38;5301334;26;20002;-75
2024/04/11 01:00:25;;;;;;;13.00;4.10;;;;;;;7.90;100.00;101701.19;5301462;26;20002;-76
2024/04/11 01:02:51;;;;;;;10.20;4.53;;;;;;;7.93;100.00;101691.13;5303050;26;20261;-77
2024/04/11 01:05:17;;;;;;;9.32;4.85;;;;;;;8.10;100.00;101691.59;5301051;26;20005;-75
2024/04/11 01:07:52;;;;;;;13.00;4.82;;;;;;;8.11;100.00;101664.03;5302127;26;20004;-76
2024/04/11 01:10:18;;;;;;;10.10;4.57;;;;;;;8.17;100.00;101628.94;5290697;26;20348;-76
2024/04/11 01:12:43;;;;;;;11.27;4.88;;;;;;;8.30;100.00;101603.03;5329675;26;20002;-75
2024/04/11 01:15:10;;;;;;;14.17;4.97;;;;;;;8.47;100.00;101552.91;5300852;27;20511;-75
2024/04/11 01:17:36;;;;;;;14.63;5.40;;;;;;;8.50;100.00;101518.06;5300744;26;20005;-77
2024/04/11 01:20:04;;;;;;;10.65;4.57;;;;;;;8.59;100.00;101501.31;5302170;26;20080;-75
2024/04/11 01:22:41;;;;;;;11.82;5.28;;;;;;;8.71;100.00;101478.13;5302502;26;20002;-75
2024/04/11 01:25:08;;;;;;;13.43;5.93;;;;;;;8.71;100.00;101417.75;5299965;26;20399;-75
2024/04/11 01:27:34;;;;;;;11.55;4.85;;;;;;;8.86;100.00;101389.75;5300788;26;20037;-76
2024/04/11 01:30:02;;;;;;;10.63;4.90;;;;;;;8.84;100.00;101350.94;5302167;26;20010;-75
2024/04/11 01:32:28;;;;;;;8.85;4.90;;;;;;;8.96;100.00;101306.38;5302852;26;20068;-75
2024/04/11 01:34:56;;;;;;;12.40;5.03;;;;;;;9.01;100.00;101277.50;5299800;26;20452;-75
2024/04/11 01:37:25;;;;;;;11.93;6.78;;;;;;;9.07;100.00;101229.03;5301257;27;20050;-77
2024/04/11 01:39:51;;;;;;;12.45;5.53;;;;;;;9.08;100.00;101218.22;5302128;26;20012;-76
2024/04/11 01:42:18;;;;;;;9.85;5.60;;;;;;;9.07;100.00;101194.41;5300767;26;20005;-76
2024/04/11 01:44:44;;;;;;;8.27;5.45;;;;;;;9.08;100.00;101182.75;5299760;27;20002;-75
2024/04/11 01:47:09;;;;;;;;;;;;;;;9.08;100.00;101196.06;5289872;26;20017;-75
2024/04/11 01:49:35;;;;;;;11.40;5.90;;;;;;;9.07;100.00;101223.69;5303229;26;19926;-75
2024/04/11 01:52:09;;;;;;;12.83;5.93;;;;;;;8.88;100.00;101188.09;5304592;26;20377;-77
2024/04/11 01:54:41;;;;;;;15.73;5.75;;;;;;;9.12;100.00;101237.41;5305471;26;19998;-75
2024/04/11 01:57:08;;;;;;;13.85;5.55;;;;;;;9.03;100.00;101216.97;5304929;26;20002;-76
2024/04/11 01:59:33;;;;;;;16.23;6.07;;;;;;;8.99;100.00;101232.41;5303314;27;20001;-75
2024/04/11 02:02:01;;;;;;;12.35;6.20;;;;;;;9.03;100.00;101256.91;5305231;26;20013;-74
2024/04/11 02:04:31;;;;;;;11.98;5.85;;;;;;;9.03;100.00;101264.91;5304596;26;20068;-75
2024/04/11 02:06:57;;;;;;;12.88;5.18;;;;;;;8.99;100.00;101242.19;5300695;26;20017;-75
2024/04/11 02:09:23;;;;;;;10.40;5.40;;;;;;;8.96;100.00;101259.28;5305229;26;20006;-75
2024/04/11 02:11:53;;;;;;;10.32;5.32;;;;;;;9.11;100.00;101273.03;5304578;26;20012;-75
2024/04/11 02:14:22;;;;;;;10.00;5.30;;;;;;;9.19;100.00;101233.22;5302903;26;20077;-75
2024/04/11 02:16:50;;;;;;;12.73;5.38;;;;;;;9.11;100.00;101230.44;5304275;26;19998;-75
2024/04/11 02:19:16;;;;;;;15.48;6.55;;;;;;;9.15;100.00;101221.16;5304367;26;20075;-75
2024/04/11 02:21:42;;;;;;;8.80;5.13;;;;;;;9.33;100.00;101241.75;5302817;26;20012;-75
2024/04/11 02:24:11;;;;;;;16.10;6.55;;;;;;;9.37;100.00;101200.53;5302366;26;20060;-75
2024/04/11 02:26:37;;;;;;;11.50;5.18;;;;;;;9.18;100.00;101169.44;5304517;26;20001;-76
2024/04/11 02:29:03;;;;;;;15.33;4.77;;;;;;;9.30;100.00;101225.06;5304974;26;20037;-74
2024/04/11 02:31:29;;;;;;;12.48;5.63;;;;;;;9.16;100.00;101206.03;5305101;26;20009;-75
2024/04/11 02:33:57;;;;;;;14.15;5.10;;;;;;;9.18;100.00;101236.03;5304319;26;20013;-75
2024/04/11 02:36:29;;;;;;;15.43;6.20;;;;;;;9.10;100.00;101212.75;5304058;26;19998;-76
2024/04/11 02:38:56;;;;;;;10.20;5.60;;;;;;;9.08;100.00;101182.75;5303668;26;20080;-75
2024/04/11 02:41:22;;;;;;;12.73;7.03;;;;;;;9.17;100.00;101229.84;5304775;26;20017;-75
2024/04/11 02:43:48;;;;;;;9.80;5.20;;;;;;;9.06;100.00;101203.34;5303763;26;20010;-75
2024/04/11 02:46:17;;;;;;;12.93;8.57;;;;;;;9.19;100.00;101243.03;5303412;26;20063;-76
2024/04/11 02:48:46;;;;;;;12.20;5.38;;;;;;;9.26;100.00;101239.66;5304320;26;20014;-75
2024/04/11 02:51:13;;;;;;;15.07;5.13;;;;;;;9.19;100.00;101211.06;5303356;26;20250;-75
2024/04/11 02:53:38;;;;;;;14.68;6.65;;;;;;;9.20;100.00;101221.59;5302114;27;19998;-76
2024/04/11 02:56:08;;;;;;;17.15;5.68;;;;;;;9.16;100.00;101193.53;5302990;26;20013;-76
2024/04/11 02:58:34;;;;;;;11.00;6.82;;;;;;;9.27;100.00;101150.75;5302013;26;20001;-76
2024/04/11 03:01:00;;;;;;;;;;;;;;;9.27;100.00;101116.13;5303931;26;20053;-75
2024/04/11 03:03:25;;;;;;;10.27;4.82;;;;;;;9.23;100.00;101061.44;5304201;26;19934;-76
2024/04/11 03:05:50;;;;;;;8.27;5.00;;;;;;;9.37;100.00;101037.97;5331016;26;20005;-75
2024/04/11 03:08:16;;;;;;;13.23;5.47;;;;;;;9.34;100.00;100992.94;5304730;26;20001;-75
2024/04/11 03:10:42;;;;;;;15.50;4.63;;;;;;;9.32;100.00;100944.28;5303410;26;20538;-75
2024/04/11 03:13:07;;;;;;;;;;;;;;;9.48;100.00;100932.00;5304549;26;19997;-75
2024/04/11 03:15:33;;;;;;;15.35;5.68;;;;;;;9.58;100.00;100923.13;5303313;26;19927;-75
2024/04/11 03:17:58;;;;;;;11.60;4.80;;;;;;;9.69;100.00;100883.72;5301837;26;20009;-75
2024/04/11 03:20:23;;;;;;;13.43;4.53;;;;;;;9.48;100.00;100801.44;5303241;26;20013;-75
2024/04/11 03:22:49;;;;;;;15.47;5.30;;;;;;;9.41;100.00;100748.88;5303200;26;20463;-75
2024/04/11 03:25:14;;;;;;;7.55;4.38;;;;;;;9.65;100.00;100797.06;5303319;26;20013;-75
2024/04/11 03:27:40;;;;;;;11.43;4.40;;;;;;;9.62;100.00;100730.72;5303447;26;20001;-76
2024/04/11 03:30:06;;;;;;;12.00;4.50;;;;;;;9.60;100.00;100671.41;5329890;26;20014;-75
2024/04/11 03:32:31;;;;;;;9.35;4.85;;;;;;;9.61;100.00;100720.22;5330363;26;20091;-75
2024/04/11 03:34:57;;;;;;;9.83;4.50;;;;;;;9.68;100.00;100694.59;5303326;26;20453;-75
2024/04/11 03:37:23;;;;;;;12.07;4.40;;;;;;;9.63;100.00;100687.06;5330360;26;20017;-75
2024/04/11 03:39:48;;;;;;;11.30;4.13;;;;;;;9.68;100.00;100690.09;5303199;26;20013;-76
2024/04/11 03:42:14;;;;;;;13.00;4.18;;;;;;;9.67;100.00;100679.63;5303400;26;20384;-75
2024/04/11 03:44:42;;;;;;;9.23;4.35;;;;;;;9.57;100.00;100655.72;5303300;26;20024;-75
2024/04/11 03:47:08;;;;;;;6.82;4.07;;;;;;;9.51;100.00;100648.38;5303189;26;19994;-75
2024/04/11 03:49:34;;;;;;;12.23;4.38;;;;;;;9.59;100.00;100680.38;5330488;26;20079;-76
2024/04/11 03:52:00;;;;;;;16.45;5.07;;;;;;;9.55;100.00;100656.88;5301209;26;19993;-75
2024/04/11 03:54:27;;;;;;;12.10;3.95;;;;;;;9.54;100.00;100671.19;5301409;27;20464;-75
2024/04/11 03:56:53;;;;;;;15.77;4.18;;;;;;;9.50;100.00;100662.66;5302903;26;20349;-75
2024/04/11 03:59:18;;;;;;;9.55;4.95;;;;;;;9.51;100.00;100701.66;5303310;26;20001;-74
2024/04/11 04:01:44;;;;;;;15.10;4.97;;;;;;;9.49;100.00;100704.47;5303518;26;20012;-76
2024/04/11 04:04:10;;;;;;;8.95;4.07;;;;;;;9.56;100.00;100744.66;5301208;26;21055;-76
2024/04/11 04:06:36;;;;;;;17.63;5.30;;;;;;;9.71;100.00;100764.41;5303468;26;19998;-75
2024/04/11 04:09:07;;;;;;;8.30;4.28;;;;;;;9.68;100.00;100723.91;5301935;26;19994;-75
2024/04/11 04:11:33;;;;;;;9.70;4.32;;;;;;;9.70;100.00;100697.94;5302524;26;20330;-76
2024/04/11 04:13:58;;;;;;;11.57;3.65;;;;;;;9.73;100.00;100698.44;5302659;26;20009;-75
2024/04/11 04:16:24;;;;;;;12.20;4.33;;;;;;;9.83;100.00;100735.69;5302428;26;20005;-75
2024/04/11 04:18:54;;;;;;;13.20;3.93;;;;;;;9.78;100.00;100718.47;5302496;26;19997;-75
2024/04/11 04:21:20;;;;;;;14.85;4.07;;;;;;;9.73;100.00;100719.78;5303172;26;19997;-75
2024/04/11 04:23:48;;;;;;;11.25;4.22;;;;;;;9.77;100.00;100720.31;5302917;26;19998;-75
2024/04/11 04:26:19;;;;;;;11.13;3.75;;;;;;;9.91;100.00;100759.72;5302044;26;20002;-77
2024/04/11 04:28:45;;;;;;;9.10;3.95;;;;;;;9.80;100.00;100743.97;5301392;27;20002;-75
2024/04/11 04:31:25;;;;;;;9.43;4.35;;;;;;;9.83;100.00;100726.84;5300331;26;20524;-76
2024/04/11 04:33:54;;;;;;;10.43;4.35;;;;;;;9.82;100.00;100688.69;5300642;27;20072;-74
2024/04/11 04:36:22;;;;;;;7.45;4.28;;;;;;;9.92;100.00;100736.56;5302768;26;20738;-76
2024/04/11 04:38:52;;;;;;;7.78;4.13;;;;;;;9.84;100.00;100712.53;5300877;26;20002;-75
2024/04/11 04:41:18;;;;;;;8.98;3.67;;;;;;;9.93;100.00;100740.91;5289632;26;20016;-75
2024/04/11 04:43:45;;;;;;;29.35;4.57;;;;;;;9.82;100.00;100696.69;5300841;26;20112;-75
2024/04/11 04:46:15;;;;;;;8.60;3.28;;;;;;;9.77;100.00;100676.81;5300193;26;20012;-75
2024/04/11 04:48:41;;;;;;;8.95;3.88;;;;;;;9.96;100.00;100707.75;5301153;27;19998;-75
2024/04/11 04:51:06;;;;;;;7.38;3.80;;;;;;;9.99;100.00;100707.41;5301253;26;20009;-75
2024/04/11 04:53:32;;;;;;;12.60;3.47;;;;;;;9.99;100.00;100673.56;5302829;26;20080;-76
2024/04/11 04:55:58;;;;;;;8.32;4.00;;;;;;;10.06;100.00;100697.78;5301885;26;20352;-75
2024/04/11 04:58:24;;;;;;;7.03;3.40;;;;;;;9.91;100.00;100628.22;5300545;26;20002;-76
2024/04/11 05:00:50;;;;;;;11.93;3.80;;;;;;;10.06;100.00;100727.13;5301679;26;20013;-75
2024/04/11 05:03:15;;;;;;;14.63;3.30;;;;;;;10.07;100.00;100670.13;5300827;27;20412;-74
2024/04/11 05:05:41;;;;;;;11.67;3.53;;;;;;;10.24;100.00;100695.03;5300756;26;20021;-74
2024/04/11 05:08:07;;;;;;;5.32;2.78;;;;;;;10.11;100.00;100610.09;5302227;26;20002;-75
2024/04/11 05:10:40;;;;;;;9.38;2.55;;;;;;;10.14;100.00;100673.81;5300828;27;20017;-74
2024/04/11 05:13:09;;;;;;;8.75;3.90;;;;;;;10.17;100.00;100678.81;5302059;26;20141;-75
2024/04/11 05:15:39;;;;;;;9.38;2.60;;;;;;;10.33;100.00;100715.44;5299407;27;20002;-75
2024/04/11 05:18:05;;;;;;;10.88;2.28;;;;;;;10.13;100.00;100608.94;5302185;26;19998;-75
2024/04/11 05:20:32;;;;;;;;;;;;;;;10.39;100.00;100665.91;5324033;26;20013;-74
2024/04/11 05:22:57;;;;;;;5.47;2.65;;;;;;;10.30;100.00;100625.00;5293020;26;20109;-75
2024/04/11 05:25:23;;;;;;;7.40;2.23;;;;;;;10.29;100.00;100623.34;5302991;26;20009;-74
2024/04/11 05:27:48;;;;;;;8.70;2.63;;;;;;;10.47;100.00;100712.16;5298038;26;20044;-76
2024/04/11 05:30:14;;;;;;;13.13;2.65;;;;;;;10.59;100.00;100674.47;5304548;26;20024;-75
2024/04/11 05:32:44;;;;;;;8.95;2.15;;;;;;;10.53;100.00;100635.91;5305673;26;20002;-75
2024/04/11 05:35:09;;;;;;;6.70;2.08;;;;;;;10.63;100.00;100660.63;5304565;26;20001;-75
2024/04/11 05:37:45;;;;;;;9.55;3.10;;;;;;;10.60;100.00;100630.75;5305181;26;20539;-75
2024/04/11 05:40:13;;;;;;;8.60;2.97;;;;;;;10.68;100.00;100660.97;5305053;26;20010;-75
2024/04/11 05:42:49;;;;;;;8.82;3.28;;;;;;;10.72;100.00;100656.09;5303112;27;20002;-75
2024/04/11 05:45:19;;;;;;;8.48;2.40;;;;;;;10.72;100.00;100661.44;5302419;27;20009;-75
2024/04/11 05:47:46;;;;;;;7.55;2.00;;;;;;;10.76;100.00;100644.09;5305072;26;20395;-76
2024/04/11 05:50:15;;;;;;;7.88;2.72;;;;;;;10.60;100.00;100633.41;5303695;26;20006;-75
2024/04/11 05:52:43;;;;;;;5.00;1.95;;;;;;;10.85;100.00;100683.16;5303640;26;20006;-74
2024/04/11 05:55:12;;;;;;;6.10;2.47;;;;;;;10.86;100.00;100703.53;5304588;26;20012;-75
2024/04/11 05:57:39;;;;;;;8.75;2.00;;;;;;;10.96;100.00;100764.81;5302831;26;20008;-75
2024/04/11 06:00:08;;;;;;;;;;;;;;;10.86;100.00;100674.13;5303605;27;20082;-75
2024/04/11 06:02:38;;;;;;;8.02;2.20;;;;;;;10.78;100.00;100707.03;5304681;26;19984;-75
2024/04/11 06:05:09;;;;;;;5.38;1.63;;;;;;;11.03;100.00;100819.28;5304337;26;20017;-75
2024/04/11 06:07:35;;;;;;;4.80;2.58;;;;;;;10.98;100.00;100709.41;5304216;26;20005;-77
2024/04/11 06:10:04;;;;;;;7.70;2.33;;;;;;;10.82;100.00;100763.63;5304834;26;20036;-75
2024/04/11 06:12:31;;;;;;;7.00;2.20;;;;;;;11.06;100.00;100879.56;5331911;26;20141;-75
2024/04/11 06:14:56;;;;;;;11.00;3.30;;;;;;;10.92;100.00;100758.97;5304033;26;20062;-74
2024/04/11 06:17:22;;;;;;;4.80;2.20;;;;;;;11.01;100.00;100847.97;5328481;26;20372;-74
2024/04/11 06:19:47;;;;;;;7.33;2.83;;;;;;;11.02;100.00;100867.50;5314702;26;20017;-75
2024/04/11 06:22:16;;;;;;;8.50;2.38;;;;;;;10.91;100.00;100847.25;5304785;26;20240;-75
2024/04/11 06:24:42;;;;;;;7.57;2.08;;;;;;;11.05;100.00;100982.94;5302031;27;20017;-75
2024/04/11 06:27:10;;;;;;;8.88;2.35;;;;;;;10.96;100.00;100943.81;5340686;26;19997;-75
2024/04/11 06:29:37;;;;;;;6.90;2.25;;;;;;;10.89;100.00;100989.00;5304147;26;20006;-75
2024/04/11 06:32:17;;;;;;;9.90;2.30;;;;;;;10.99;100.00;101130.50;5303557;26;20016;-76
2024/04/11 06:34:43;;;;;;;10.13;2.22;;;;;;;11.05;100.00;101201.16;5303647;26;20005;-75
2024/04/11 06:37:12;;;;;;;;;;;;;;;11.07;100.00;101282.00;5302701;27;20023;-76
2024/04/11 06:39:38;;;;;;;9.15;2.05;;;;;;;11.03;100.00;101261.91;5304746;26;19926;-76
2024/04/11 06:42:13;;;;;;;;;;;;;;;11.07;100.00;101293.53;5304542;26;20605;-75
2024/04/11 06:44:40;;;;;;;9.43;2.28;;;;;;;11.15;100.00;101394.34;5302394;27;19935;-76
2024/04/11 06:47:06;;;;;;;10.30;2.30;;;;;;;11.07;100.00;101343.47;5304055;26;19998;-75
2024/04/11 06:49:35;;;;;;;7.88;2.90;;;;;;;10.86;100.00;101462.09;5303954;27;20374;-75
2024/04/11 06:52:00;;;;;;;11.27;2.58;;;;;;;10.89;100.00;101710.28;5302314;27;19998;-76
2024/04/11 06:54:29;;;;;;;10.13;3.45;;;;;;;10.90;100.00;101812.66;5303922;26;20404;-75
2024/04/11 06:56:57;;;;;;;12.88;2.45;;;;;;;10.74;100.00;101792.66;5303890;26;20075;-74
2024/04/11 06:59:24;;;;;;;15.93;4.18;;;;;;;10.70;100.00;101825.09;5296336;26;20076;-76
2024/04/11 07:01:52;;;;;;;5.18;2.10;;;;;;;10.69;100.00;101847.47;5323769;26;20001;-75
2024/04/11 07:04:18;;;;;;;8.63;2.55;;;;;;;10.75;100.00;101892.34;5330263;26;20134;-75
2024/04/11 07:06:46;;;;;;;4.28;2.22;;;;;;;10.63;100.00;101880.06;5304044;27;20010;-75
2024/04/11 07:09:12;;;;;;;8.60;2.70;;;;;;;10.52;100.00;101900.53;5303668;26;20006;-75
2024/04/11 07:11:40;;;;;;;8.18;2.95;;;;;;;10.63;100.00;101961.03;5304171;26;19998;-76
2024/04/11 07:14:11;;;;;;;10.73;2.85;;;;;;;10.35;100.00;101968.75;5331103;26;20002;-75
2024/04/11 07:16:44;;;;;;;10.07;3.85;;;;;;;10.46;100.00;102063.09;5303145;26;20016;-75
2024/04/11 07:19:11;;;;;;;6.32;2.72;;;;;;;10.29;100.00;102057.34;5303454;26;19997;-76
2024/04/11 07:21:38;;;;;;;8.10;2.55;;;;;;;10.31;100.00;102094.59;5303994;26;20001;-77
2024/04/11 07:24:05;;;;;;;11.80;3.05;;;;;;;10.17;100.00;102062.84;5331072;26;20104;-76
2024/04/11 07:26:34;;;;;;;7.57;2.83;;;;;;;10.24;100.00;102096.06;5304437;26;20002;-76
2024/04/11 07:29:05;;;;;;;9.52;2.72;;;;;;;10.23;100.00;102113.03;5304164;27;20009;-76
2024/04/11 07:31:32;;;;;;;7.82;2.53;;;;;;;10.13;100.00;102099.59;5304179;26;20010;-77
2024/04/11 07:34:02;;;;;;;9.55;2.90;;;;;;;10.26;100.00;102139.50;5304201;26;20076;-77
2024/04/11 07:36:32;;;;;;;11.27;3.75;;;;;;;10.21;100.00;102126.53;5302375;27;20013;-77
2024/04/11 07:38:58;;;;;;;7.30;2.83;;;;;;;10.15;100.00;102122.53;5303745;26;20004;-76
2024/04/11 07:41:27;;;;;;;5.65;2.53;;;;;;;10.17;100.00;102157.09;5304179;26;19998;-76
2024/04/11 07:44:00;;;;;;;11.77;3.67;;;;;;;10.11;100.00;102137.13;5303731;26;20002;-76
2024/04/11 07:46:28;;;;;;;12.10;4.13;;;;;;;9.94;100.00;102124.28;5317874;26;20001;-76
2024/04/11 07:48:56;;;;;;;19.70;4.20;;;;;;;10.05;100.00;102163.44;5299430;26;20100;-75
2024/04/11 07:51:22;;;;;;;11.77;4.10;;;;;;;9.83;100.00;102137.63;5292279;27;20236;-76
2024/04/11 07:53:49;;;;;;;5.78;3.65;;;;;;;9.96;100.00;102175.69;5303362;26;20009;-76
2024/04/11 07:56:15;;;;;;;;;;;;;;;9.77;100.00;102143.47;5303446;26;20013;-76
2024/04/11 07:58:41;;;;;;;5.20;3.00;;;;;;;9.89;100.00;102201.19;5330644;26;19931;-77
2024/04/11 08:01:08;;;;;;;12.35;3.97;;;;;;;9.97;100.00;102204.06;5301657;27;20032;-77
2024/04/11 08:03:34;;;;;;;10.90;2.38;;;;;;;9.76;100.00;102185.28;5301524;27;20079;-76
2024/04/11 08:06:00;;;;;;;14.05;3.45;;;;;;;9.93;100.00;102214.16;5303782;26;20072;-76
2024/04/11 08:08:26;;;;;;;9.32;3.17;;;;;;;9.92;100.00;102193.75;5302049;27;20452;-76
2024/04/11 08:11:02;;;;;;;17.25;3.80;;;;;;;9.87;100.00;102157.75;5272623;27;20006;-75
2024/04/11 08:13:29;;;;;;;9.63;3.35;;;;;;;10.29;100.00;102176.63;5301436;26;20011;-75
2024/04/11 08:15:54;;;;;;;11.35;4.47;;;;;;;10.26;100.00;102135.00;5303460;26;20448;-76
2024/04/11 08:18:21;;;;;;;9.73;3.60;;;;;;;10.34;100.00;102137.91;5302065;26;20002;-76
2024/04/11 08:20:46;;;;;;;10.02;3.08;;;;;;;10.31;100.00;102110.63;5303792;26;20477;-76
2024/04/11 08:23:12;;;;;;;7.00;3.57;;;;;;;10.23;100.00;102091.69;5330667;26;20013;-76
2024/04/11 08:25:37;;;;;;;14.10;3.30;;;;;;;10.29;100.00;102101.91;5301562;27;20005;-76
2024/04/11 08:28:03;;;;;;;6.93;3.03;;;;;;;10.47;100.00;102116.38;5301524;26;20008;-76
2024/04/11 08:30:29;;;;;;;11.23;3.55;;;;;;;10.63;100.00;102142.66;5303201;26;19998;-76
2024/04/11 08:32:55;;;;;;;11.82;3.72;;;;;;;10.50;100.00;102089.41;5301696;27;20001;-75
2024/04/11 08:35:21;;;;;;;14.82;3.20;;;;;;;10.22;100.00;102060.63;5302686;26;20457;-75
2024/04/11 08:37:50;;;;;;;12.13;5.07;;;;;;;10.21;100.00;102094.50;5302108;27;20004;-76
2024/04/11 08:40:17;;;;;;;11.70;4.20;;;;;;;10.48;100.00;102139.41;5302810;26;20236;-76
2024/04/11 08:42:43;;;;;;;8.85;3.10;;;;;;;10.40;100.00;102101.00;5302959;26;20002;-77
2024/04/11 08:45:09;;;;;;;12.05;4.35;;;;;;;10.54;100.00;102128.25;5300722;27;20008;-75
2024/04/11 08:47:34;;;;;;;8.38;3.63;;;;;;;10.53;100.00;102118.50;5301093;27;20002;-76
2024/04/11 08:50:00;;;;;;;12.57;3.53;;;;;;;10.52;100.00;102127.50;5271936;27;20029;-76
2024/04/11 08:52:30;;;;;;;7.63;3.30;;;;;;;10.57;100.00;102146.66;5300303;27;19997;-76
2024/04/11 08:54:56;;;;;;;16.83;4.25;;;;;;;10.50;100.00;102137.47;5300254;27;20057;-76
2024/04/11 08:57:22;;;;;;;11.25;4.03;;;;;;;10.57;100.00;102144.00;5302273;26;20033;-76
2024/04/11 08:59:48;;;;;;;13.65;4.03;;;;;;;10.38;100.00;102110.97;5300710;27;20072;-76
2024/04/11 09:02:13;;;;;;;12.15;3.53;;;;;;;10.77;100.00;102157.53;5301194;27;20353;-76
2024/04/11 09:04:39;;;;;;;9.60;3.15;;;;;;;10.70;100.00;102132.28;5301027;26;20002;-77
2024/04/11 09:07:04;;;;;;;8.52;4.07;;;;;;;10.70;100.00;102135.81;5302146;26;20001;-75
2024/04/11 09:09:33;;;;;;;12.10;3.47;;;;;;;10.66;100.00;102130.88;5300519;27;20550;-75
2024/04/11 09:11:59;;;;;;;9.27;3.88;;;;;;;10.78;100.00;102127.16;5306901;26;20008;-76
2024/04/11 09:14:25;;;;;;;7.93;3.50;;;;;;;10.73;100.00;102138.22;5294228;26;20001;-74
2024/04/11 09:17:00;;;;;;;12.23;3.83;;;;;;;10.98;100.00;102178.91;5303724;26;20014;-73
2024/04/11 09:19:26;;;;;;;9.63;3.75;;;;;;;10.98;100.00;102174.41;5285250;26;20048;-76
2024/04/11 09:21:53;;;;;;;9.13;4.00;;;;;;;11.07;100.00;102159.38;5292532;27;20044;-75
2024/04/11 09:24:18;;;;;;;7.85;3.45;;;;;;;10.95;100.00;102139.06;5301424;26;20244;-77
2024/04/11 09:26:44;;;;;;;9.95;4.43;;;;;;;10.98;100.00;102163.72;5302364;26;20049;-76
2024/04/11 09:29:11;;;;;;;9.65;4.32;;;;;;;11.08;100.00;102179.81;5302262;26;20953;-75
2024/04/11 09:31:40;;;;;;;10.65;4.53;;;;;;;11.18;100.00;102159.31;5302403;26;20001;-76
2024/04/11 09:34:12;;;;;;;10.82;4.07;;;;;;;11.11;100.00;102157.31;5301684;27;20024;-75
2024/04/11 09:36:49;;;;;;;6.38;3.85;;;;;;;11.16;100.00;102155.09;5301423;26;20002;-77
2024/04/11 09:39:41;;;;;;;17.30;5.82;;;;;;;11.27;100.00;102179.06;5298161;27;20001;-77
2024/04/11 09:42:18;;;;;;;11.68;4.03;;;;;;;11.24;100.00;102168.66;5298775;27;20002;-77
2024/04/11 09:44:47;;;;;;;11.77;3.88;;;;;;;11.15;100.00;102172.13;5299833;27;20040;-76
2024/04/11 09:47:18;;;;;;;12.32;4.25;;;;;;;11.30;100.00;102202.03;5302060;26;20144;-75
2024/04/11 09:49:53;;;;;;;12.60;4.63;;;;;;;11.34;100.00;102190.94;5301480;26;20017;-76
2024/04/11 09:52:26;;;;;;;10.82;4.55;;;;;;;11.69;100.00;102199.56;5299892;27;20028;-76
2024/04/11 09:54:52;;;;;;;10.77;3.67;;;;;;;11.81;100.00;102188.59;5299898;26;20016;-76
2024/04/11 09:57:21;;;;;;;9.18;3.95;;;;;;;11.75;100.00;102165.09;5302603;26;20002;-77
2024/04/11 09:59:47;;;;;;;11.82;3.80;;;;;;;11.73;100.00;102161.69;5302008;26;20016;-77
2024/04/11 10:02:13;;;;;;;11.60;4.60;;;;;;;11.60;100.00;102134.31;5299632;27;20033;-77
2024/04/11 10:04:42;;;;;;;11.63;4.65;;;;;;;11.80;100.00;102172.72;5301677;26;20001;-77
2024/04/11 10:07:09;;;;;;;9.15;4.13;;;;;;;11.85;100.00;102154.41;5296080;27;20006;-76
2024/04/11 10:09:34;;;;;;;;;;;;;;;11.79;100.00;102131.69;5305046;27;20005;-76
2024/04/11 10:12:04;;;;;;;11.13;4.63;;;;;;;11.88;100.00;102147.97;5304987;27;19934;-75
2024/04/11 10:14:32;;;;;;;17.02;4.63;;;;;;;11.86;100.00;102141.88;5304558;26;20009;-76
2024/04/11 10:17:05;;;;;;;12.73;4.75;;;;;;;11.86;100.00;102137.34;5303381;27;20025;-77
2024/04/11 10:19:38;;;;;;;11.43;4.40;;;;;;;11.86;100.00;102163.28;5303600;26;20017;-74
2024/04/11 10:22:05;;;;;;;10.48;4.05;;;;;;;11.97;100.00;102181.94;5304830;26;20014;-75
2024/04/11 10:24:44;;;;;;;12.15;4.45;;;;;;;11.92;100.00;102154.75;5302482;26;20006;-74
2024/04/11 10:27:18;;;;;;;10.75;4.03;;;;;;;11.96;100.00;102169.53;5305808;26;20246;-77
2024/04/11 10:29:48;;;;;;;16.00;4.63;;;;;;;11.94;100.00;102158.97;5304589;27;20001;-77
2024/04/11 10:32:14;;;;;;;9.00;4.25;;;;;;;11.97;100.00;102165.88;5303539;27;20013;-77
2024/04/11 10:34:47;;;;;;;5.85;3.90;;;;;;;11.91;100.00;102191.34;5306387;26;20002;-77
2024/04/11 10:37:16;;;;;;;11.10;4.22;;;;;;;11.64;100.00;102175.03;5303635;27;20025;-76
2024/04/11 10:39:41;;;;;;;12.38;5.57;;;;;;;11.79;100.00;102203.94;5306150;27;20009;-77
2024/04/11 10:42:07;;;;;;;10.13;4.40;;;;;;;11.82;100.00;102225.09;5304396;27;20002;-76
2024/04/11 10:44:37;;;;;;;12.23;5.00;;;;;;;12.08;100.00;102238.06;5304927;26;20012;-75
2024/04/11 10:47:13;;;;;;;10.73;4.30;;;;;;;12.03;100.00;102205.47;5305327;26;20002;-76
2024/04/11 10:49:42;;;;;;;14.18;3.97;;;;;;;12.37;100.00;102226.56;5303576;27;20014;-76
2024/04/11 10:52:11;;;;;;;9.45;4.45;;;;;;;12.27;100.00;102174.78;5304911;26;20001;-77
2024/04/11 10:54:43;;;;;;;11.18;3.92;;;;;;;12.08;100.00;102179.16;5305321;26;20006;-77
2024/04/11 10:57:12;;;;;;;11.73;5.70;;;;;;;12.08;100.00;102194.34;5305652;27;20001;-77
2024/04/11 10:59:50;;;;;;;10.10;4.45;;;;;;;12.28;100.00;102243.44;5305693;26;20010;-76
2024/04/11 11:02:20;;;;;;;9.05;4.28;;;;;;;12.27;100.00;102198.91;5303886;27;20016;-74
2024/04/11 11:04:50;;;;;;;11.48;4.68;;;;;;;12.41;100.00;102194.00;5305595;26;19997;-74
2024/04/11 11:07:21;;;;;;;10.35;4.75;;;;;;;12.35;100.00;102199.06;5302773;27;20038;-76
2024/04/11 11:09:53;;;;;;;10.65;4.82;;;;;;;12.50;100.00;102235.16;5305426;27;20109;-75
2024/04/11 11:12:19;;;;;;;10.98;4.97;;;;;;;12.60;100.00;102209.25;5331396;26;20874;-77
2024/04/11 11:14:47;;;;;;;10.77;4.43;;;;;;;12.76;100.00;102221.22;5305770;27;20045;-77
2024/04/11 11:17:17;;;;;;;8.63;4.82;;;;;;;12.94;100.00;102210.66;5303792;26;20264;-77
2024/04/11 11:19:55;;;;;;;9.68;4.38;;;;;;;12.96;100.00;102180.03;5305174;26;20041;-77
2024/04/11 11:22:33;;;;;;;6.97;4.63;;;;;;;12.83;100.00;102147.31;5303930;27;20001;-75